sensor_id;sensor_type;location;lat;lon;timestamp;P1;durP1;ratioP1;P2;durP2;ratioP2
7501;SDS011;3792;47.740;7.606;2023-08-01T00:00:42;5.90;;;4.33;;
7501;SDS011;3792;47.740;7.606;2023-08-01T00:03:10;5.67;;;4.30;;
7501;SDS011;3792;47.740;7.606;2023-08-01T00:05:39;5.87;;;4.50;;
7501;SDS011;3792;47.740;7.606;2023-08-01T00:08:09;8.53;;;4.60;;
7501;SDS011;3792;47.740;7.606;2023-08-01T00:10:38;6.17;;;4.57;;
7501;SDS011;3792;47.740;7.606;2023-08-01T00:13:05;5.17;;;4.67;;
7501;SDS011;3792;47.740;7.606;2023-08-01T00:15:33;5.47;;;4.57;;
7501;SDS011;3792;47.740;7.606;2023-08-01T00:18:00;4.77;;;3.90;;
7501;SDS011;3792;47.740;7.606;2023-08-01T00:20:27;6.57;;;4.40;;
7501;SDS011;3792;47.740;7.606;2023-08-01T00:22:55;4.77;;;3.87;;
7501;SDS011;3792;47.740;7.606;2023-08-01T00:25:22;7.50;;;4.37;;
7501;SDS011;3792;47.740;7.606;2023-08-01T00:27:49;7.37;;;5.03;;
7501;SDS011;3792;47.740;7.606;2023-08-01T00:30:16;5.60;;;4.13;;
7501;SDS011;3792;47.740;7.606;2023-08-01T00:32:43;5.47;;;4.63;;
7501;SDS011;3792;47.740;7.606;2023-08-01T00:35:10;6.40;;;4.30;;
7501;SDS011;3792;47.740;7.606;2023-08-01T00:37:37;6.87;;;3.77;;
7501;SDS011;3792;47.740;7.606;2023-08-01T00:40:07;4.83;;;4.10;;
7501;SDS011;3792;47.740;7.606;2023-08-01T00:42:35;5.67;;;3.93;;
7501;SDS011;3792;47.740;7.606;2023-08-01T00:45:03;5.53;;;4.20;;
7501;SDS011;3792;47.740;7.606;2023-08-01T00:47:32;5.20;;;4.70;;
7501;SDS011;3792;47.740;7.606;2023-08-01T00:49:59;8.97;;;4.87;;
7501;SDS011;3792;47.740;7.606;2023-08-01T00:52:26;5.30;;;4.00;;
7501;SDS011;3792;47.740;7.606;2023-08-01T00:54:54;7.00;;;4.10;;
7501;SDS011;3792;47.740;7.606;2023-08-01T00:57:23;4.87;;;4.17;;
7501;SDS011;3792;47.740;7.606;2023-08-01T00:59:50;4.50;;;4.00;;
7501;SDS011;3792;47.740;7.606;2023-08-01T01:02:17;5.93;;;4.67;;
7501;SDS011;3792;47.740;7.606;2023-08-01T01:04:45;5.00;;;4.27;;
7501;SDS011;3792;47.740;7.606;2023-08-01T01:07:13;7.60;;;4.77;;
7501;SDS011;3792;47.740;7.606;2023-08-01T01:09:43;8.93;;;3.97;;
7501;SDS011;3792;47.740;7.606;2023-08-01T01:12:10;3.93;;;3.53;;
7501;SDS011;3792;47.740;7.606;2023-08-01T01:14:38;5.73;;;3.20;;
7501;SDS011;3792;47.740;7.606;2023-08-01T01:17:05;3.10;;;2.80;;
7501;SDS011;3792;47.740;7.606;2023-08-01T01:19:32;5.00;;;3.20;;
7501;SDS011;3792;47.740;7.606;2023-08-01T01:22:01;6.57;;;3.40;;
7501;SDS011;3792;47.740;7.606;2023-08-01T01:24:30;5.13;;;3.57;;
7501;SDS011;3792;47.740;7.606;2023-08-01T01:26:58;5.90;;;3.50;;
7501;SDS011;3792;47.740;7.606;2023-08-01T01:29:26;6.47;;;3.30;;
7501;SDS011;3792;47.740;7.606;2023-08-01T01:31:55;4.17;;;3.30;;
7501;SDS011;3792;47.740;7.606;2023-08-01T01:34:22;5.90;;;3.70;;
7501;SDS011;3792;47.740;7.606;2023-08-01T01:36:49;3.97;;;3.47;;
7501;SDS011;3792;47.740;7.606;2023-08-01T01:39:18;4.37;;;3.60;;
7501;SDS011;3792;47.740;7.606;2023-08-01T01:41:45;4.20;;;3.07;;
7501;SDS011;3792;47.740;7.606;2023-08-01T01:44:12;4.07;;;3.50;;
7501;SDS011;3792;47.740;7.606;2023-08-01T01:46:39;3.20;;;2.90;;
7501;SDS011;3792;47.740;7.606;2023-08-01T01:49:06;4.40;;;3.57;;
7501;SDS011;3792;47.740;7.606;2023-08-01T01:51:34;4.60;;;3.33;;
7501;SDS011;3792;47.740;7.606;2023-08-01T01:54:01;4.03;;;3.17;;
7501;SDS011;3792;47.740;7.606;2023-08-01T01:56:29;6.27;;;3.20;;
7501;SDS011;3792;47.740;7.606;2023-08-01T01:58:56;3.87;;;2.83;;
7501;SDS011;3792;47.740;7.606;2023-08-01T02:01:23;3.97;;;2.87;;
7501;SDS011;3792;47.740;7.606;2023-08-01T02:03:50;3.53;;;3.17;;
7501;SDS011;3792;47.740;7.606;2023-08-01T02:06:17;3.33;;;3.03;;
7501;SDS011;3792;47.740;7.606;2023-08-01T02:08:45;3.27;;;2.90;;
7501;SDS011;3792;47.740;7.606;2023-08-01T02:11:12;5.87;;;3.20;;
7501;SDS011;3792;47.740;7.606;2023-08-01T02:13:40;3.97;;;2.83;;
7501;SDS011;3792;47.740;7.606;2023-08-01T02:16:07;3.77;;;2.90;;
7501;SDS011;3792;47.740;7.606;2023-08-01T02:18:34;3.30;;;3.00;;
7501;SDS011;3792;47.740;7.606;2023-08-01T02:21:02;4.43;;;3.00;;
7501;SDS011;3792;47.740;7.606;2023-08-01T02:23:29;3.00;;;2.70;;
7501;SDS011;3792;47.740;7.606;2023-08-01T02:25:56;3.93;;;2.90;;
7501;SDS011;3792;47.740;7.606;2023-08-01T02:28:23;4.17;;;3.03;;
7501;SDS011;3792;47.740;7.606;2023-08-01T02:30:51;4.27;;;3.07;;
7501;SDS011;3792;47.740;7.606;2023-08-01T02:33:19;5.73;;;3.17;;
7501;SDS011;3792;47.740;7.606;2023-08-01T02:35:46;5.13;;;3.23;;
7501;SDS011;3792;47.740;7.606;2023-08-01T02:38:13;4.63;;;3.10;;
7501;SDS011;3792;47.740;7.606;2023-08-01T02:40:40;5.90;;;3.10;;
7501;SDS011;3792;47.740;7.606;2023-08-01T02:43:07;5.30;;;2.90;;
7501;SDS011;3792;47.740;7.606;2023-08-01T02:45:34;4.27;;;2.80;;
7501;SDS011;3792;47.740;7.606;2023-08-01T02:48:02;4.93;;;2.93;;
7501;SDS011;3792;47.740;7.606;2023-08-01T02:50:30;5.63;;;3.23;;
7501;SDS011;3792;47.740;7.606;2023-08-01T02:52:57;6.30;;;3.23;;
7501;SDS011;3792;47.740;7.606;2023-08-01T02:55:24;6.53;;;3.33;;
7501;SDS011;3792;47.740;7.606;2023-08-01T02:57:51;6.20;;;3.10;;
7501;SDS011;3792;47.740;7.606;2023-08-01T03:00:18;6.20;;;3.20;;
7501;SDS011;3792;47.740;7.606;2023-08-01T03:02:45;4.27;;;3.10;;
7501;SDS011;3792;47.740;7.606;2023-08-01T03:05:13;5.33;;;2.90;;
7501;SDS011;3792;47.740;7.606;2023-08-01T03:07:40;3.63;;;3.00;;
7501;SDS011;3792;47.740;7.606;2023-08-01T03:10:07;5.33;;;2.97;;
7501;SDS011;3792;47.740;7.606;2023-08-01T03:12:36;4.37;;;3.03;;
7501;SDS011;3792;47.740;7.606;2023-08-01T03:15:03;7.87;;;3.17;;
7501;SDS011;3792;47.740;7.606;2023-08-01T03:17:32;8.20;;;2.90;;
7501;SDS011;3792;47.740;7.606;2023-08-01T03:19:59;3.83;;;2.70;;
7501;SDS011;3792;47.740;7.606;2023-08-01T03:22:27;5.03;;;2.83;;
7501;SDS011;3792;47.740;7.606;2023-08-01T03:24:54;3.90;;;2.87;;
7501;SDS011;3792;47.740;7.606;2023-08-01T03:27:21;4.20;;;3.30;;
7501;SDS011;3792;47.740;7.606;2023-08-01T03:29:49;3.30;;;2.87;;
7501;SDS011;3792;47.740;7.606;2023-08-01T03:32:16;4.67;;;3.20;;
7501;SDS011;3792;47.740;7.606;2023-08-01T03:34:43;4.90;;;2.73;;
7501;SDS011;3792;47.740;7.606;2023-08-01T03:37:10;5.40;;;2.83;;
7501;SDS011;3792;47.740;7.606;2023-08-01T03:39:40;5.07;;;3.60;;
7501;SDS011;3792;47.740;7.606;2023-08-01T03:42:07;3.43;;;3.00;;
7501;SDS011;3792;47.740;7.606;2023-08-01T03:44:34;5.53;;;3.03;;
7501;SDS011;3792;47.740;7.606;2023-08-01T03:47:01;6.47;;;3.07;;
7501;SDS011;3792;47.740;7.606;2023-08-01T03:49:29;4.33;;;2.90;;
7501;SDS011;3792;47.740;7.606;2023-08-01T03:51:56;4.97;;;3.07;;
7501;SDS011;3792;47.740;7.606;2023-08-01T03:54:23;4.40;;;2.90;;
7501;SDS011;3792;47.740;7.606;2023-08-01T03:56:51;3.40;;;3.03;;
7501;SDS011;3792;47.740;7.606;2023-08-01T03:59:19;4.83;;;3.00;;
7501;SDS011;3792;47.740;7.606;2023-08-01T04:01:46;4.33;;;3.10;;
7501;SDS011;3792;47.740;7.606;2023-08-01T04:04:13;4.80;;;3.17;;
7501;SDS011;3792;47.740;7.606;2023-08-01T04:06:40;5.77;;;3.20;;
7501;SDS011;3792;47.740;7.606;2023-08-01T04:09:07;4.53;;;3.23;;
7501;SDS011;3792;47.740;7.606;2023-08-01T04:11:34;6.00;;;3.40;;
7501;SDS011;3792;47.740;7.606;2023-08-01T04:14:02;6.00;;;3.20;;
7501;SDS011;3792;47.740;7.606;2023-08-01T04:16:29;5.93;;;3.10;;
7501;SDS011;3792;47.740;7.606;2023-08-01T04:18:56;4.67;;;2.87;;
7501;SDS011;3792;47.740;7.606;2023-08-01T04:21:23;3.33;;;2.67;;
7501;SDS011;3792;47.740;7.606;2023-08-01T04:23:50;7.40;;;3.33;;
7501;SDS011;3792;47.740;7.606;2023-08-01T04:26:17;7.40;;;3.03;;
7501;SDS011;3792;47.740;7.606;2023-08-01T04:28:45;5.70;;;2.87;;
7501;SDS011;3792;47.740;7.606;2023-08-01T04:31:14;4.33;;;2.80;;
7501;SDS011;3792;47.740;7.606;2023-08-01T04:33:41;4.23;;;2.93;;
7501;SDS011;3792;47.740;7.606;2023-08-01T04:36:10;5.70;;;3.03;;
7501;SDS011;3792;47.740;7.606;2023-08-01T04:38:37;7.10;;;3.50;;
7501;SDS011;3792;47.740;7.606;2023-08-01T04:41:04;5.03;;;2.90;;
7501;SDS011;3792;47.740;7.606;2023-08-01T04:43:31;4.90;;;3.30;;
7501;SDS011;3792;47.740;7.606;2023-08-01T04:45:58;3.67;;;3.00;;
7501;SDS011;3792;47.740;7.606;2023-08-01T04:48:26;10.47;;;3.60;;
7501;SDS011;3792;47.740;7.606;2023-08-01T04:50:53;4.80;;;2.97;;
7501;SDS011;3792;47.740;7.606;2023-08-01T04:53:21;3.60;;;2.87;;
7501;SDS011;3792;47.740;7.606;2023-08-01T04:55:48;7.20;;;3.23;;
7501;SDS011;3792;47.740;7.606;2023-08-01T04:58:15;5.60;;;3.13;;
7501;SDS011;3792;47.740;7.606;2023-08-01T05:00:42;4.67;;;3.20;;
7501;SDS011;3792;47.740;7.606;2023-08-01T05:03:09;3.27;;;2.93;;
7501;SDS011;3792;47.740;7.606;2023-08-01T05:05:37;3.67;;;3.20;;
7501;SDS011;3792;47.740;7.606;2023-08-01T05:08:04;4.80;;;2.97;;
7501;SDS011;3792;47.740;7.606;2023-08-01T05:10:31;4.57;;;3.13;;
7501;SDS011;3792;47.740;7.606;2023-08-01T05:12:58;6.10;;;3.60;;
7501;SDS011;3792;47.740;7.606;2023-08-01T05:15:25;5.17;;;3.30;;
7501;SDS011;3792;47.740;7.606;2023-08-01T05:17:52;5.63;;;3.23;;
7501;SDS011;3792;47.740;7.606;2023-08-01T05:20:20;6.17;;;3.57;;
7501;SDS011;3792;47.740;7.606;2023-08-01T05:22:49;6.23;;;3.30;;
7501;SDS011;3792;47.740;7.606;2023-08-01T05:25:16;6.47;;;4.20;;
7501;SDS011;3792;47.740;7.606;2023-08-01T05:27:43;4.00;;;3.50;;
7501;SDS011;3792;47.740;7.606;2023-08-01T05:30:10;7.50;;;3.53;;
7501;SDS011;3792;47.740;7.606;2023-08-01T05:32:38;4.43;;;3.43;;
7501;SDS011;3792;47.740;7.606;2023-08-01T05:35:06;6.60;;;3.93;;
7501;SDS011;3792;47.740;7.606;2023-08-01T05:37:34;5.00;;;3.50;;
7501;SDS011;3792;47.740;7.606;2023-08-01T05:40:02;5.07;;;3.53;;
7501;SDS011;3792;47.740;7.606;2023-08-01T05:42:30;7.60;;;3.70;;
7501;SDS011;3792;47.740;7.606;2023-08-01T05:44:57;5.37;;;3.80;;
7501;SDS011;3792;47.740;7.606;2023-08-01T05:47:24;9.23;;;3.93;;
7501;SDS011;3792;47.740;7.606;2023-08-01T05:49:51;8.07;;;3.90;;
7501;SDS011;3792;47.740;7.606;2023-08-01T05:52:18;8.33;;;4.13;;
7501;SDS011;3792;47.740;7.606;2023-08-01T05:54:45;4.13;;;3.40;;
7501;SDS011;3792;47.740;7.606;2023-08-01T05:57:14;8.20;;;3.93;;
7501;SDS011;3792;47.740;7.606;2023-08-01T05:59:41;7.73;;;4.20;;
7501;SDS011;3792;47.740;7.606;2023-08-01T06:02:08;5.50;;;3.87;;
7501;SDS011;3792;47.740;7.606;2023-08-01T06:04:35;4.70;;;3.63;;
7501;SDS011;3792;47.740;7.606;2023-08-01T06:07:04;5.83;;;3.97;;
7501;SDS011;3792;47.740;7.606;2023-08-01T06:09:31;7.20;;;3.40;;
7501;SDS011;3792;47.740;7.606;2023-08-01T06:11:58;7.07;;;4.03;;
7501;SDS011;3792;47.740;7.606;2023-08-01T06:14:26;5.17;;;3.97;;
7501;SDS011;3792;47.740;7.606;2023-08-01T06:16:53;7.50;;;3.83;;
7501;SDS011;3792;47.740;7.606;2023-08-01T06:19:21;7.03;;;4.23;;
7501;SDS011;3792;47.740;7.606;2023-08-01T06:21:48;7.10;;;3.90;;
7501;SDS011;3792;47.740;7.606;2023-08-01T06:24:15;6.40;;;4.07;;
7501;SDS011;3792;47.740;7.606;2023-08-01T06:26:42;6.60;;;4.57;;
7501;SDS011;3792;47.740;7.606;2023-08-01T06:29:09;5.00;;;3.60;;
7501;SDS011;3792;47.740;7.606;2023-08-01T06:31:37;4.87;;;3.70;;
7501;SDS011;3792;47.740;7.606;2023-08-01T06:34:04;7.43;;;3.40;;
7501;SDS011;3792;47.740;7.606;2023-08-01T06:36:31;5.03;;;3.77;;
7501;SDS011;3792;47.740;7.606;2023-08-01T06:38:58;6.27;;;4.30;;
7501;SDS011;3792;47.740;7.606;2023-08-01T06:41:25;7.97;;;4.13;;
7501;SDS011;3792;47.740;7.606;2023-08-01T06:43:52;4.73;;;3.93;;
7501;SDS011;3792;47.740;7.606;2023-08-01T06:46:19;5.53;;;4.20;;
7501;SDS011;3792;47.740;7.606;2023-08-01T06:48:48;8.40;;;4.10;;
7501;SDS011;3792;47.740;7.606;2023-08-01T06:51:15;6.77;;;3.70;;
7501;SDS011;3792;47.740;7.606;2023-08-01T06:53:42;7.30;;;4.00;;
7501;SDS011;3792;47.740;7.606;2023-08-01T06:56:09;6.07;;;4.03;;
7501;SDS011;3792;47.740;7.606;2023-08-01T06:58:36;6.13;;;3.60;;
7501;SDS011;3792;47.740;7.606;2023-08-01T07:01:03;6.30;;;3.70;;
7501;SDS011;3792;47.740;7.606;2023-08-01T07:03:30;6.47;;;3.83;;
7501;SDS011;3792;47.740;7.606;2023-08-01T07:05:59;5.93;;;3.30;;
7501;SDS011;3792;47.740;7.606;2023-08-01T07:08:26;4.40;;;3.33;;
7501;SDS011;3792;47.740;7.606;2023-08-01T07:10:53;4.80;;;3.80;;
7501;SDS011;3792;47.740;7.606;2023-08-01T07:13:20;4.07;;;3.13;;
7501;SDS011;3792;47.740;7.606;2023-08-01T07:15:47;6.40;;;3.70;;
7501;SDS011;3792;47.740;7.606;2023-08-01T07:18:14;5.97;;;3.90;;
7501;SDS011;3792;47.740;7.606;2023-08-01T07:20:41;5.90;;;3.90;;
7501;SDS011;3792;47.740;7.606;2023-08-01T07:23:10;4.97;;;3.97;;
7501;SDS011;3792;47.740;7.606;2023-08-01T07:25:37;5.77;;;3.40;;
7501;SDS011;3792;47.740;7.606;2023-08-01T07:28:04;5.63;;;3.77;;
7501;SDS011;3792;47.740;7.606;2023-08-01T07:30:31;3.60;;;3.30;;
7501;SDS011;3792;47.740;7.606;2023-08-01T07:32:58;5.27;;;3.57;;
7501;SDS011;3792;47.740;7.606;2023-08-01T07:35:25;6.63;;;3.70;;
7501;SDS011;3792;47.740;7.606;2023-08-01T07:37:52;5.27;;;3.63;;
7501;SDS011;3792;47.740;7.606;2023-08-01T07:40:21;4.17;;;3.47;;
7501;SDS011;3792;47.740;7.606;2023-08-01T07:42:48;6.03;;;3.23;;
7501;SDS011;3792;47.740;7.606;2023-08-01T07:45:17;3.93;;;3.30;;
7501;SDS011;3792;47.740;7.606;2023-08-01T07:47:44;6.03;;;3.53;;
7501;SDS011;3792;47.740;7.606;2023-08-01T07:50:11;4.80;;;3.03;;
7501;SDS011;3792;47.740;7.606;2023-08-01T07:52:38;4.20;;;3.30;;
7501;SDS011;3792;47.740;7.606;2023-08-01T07:55:06;5.53;;;3.30;;
7501;SDS011;3792;47.740;7.606;2023-08-01T07:57:34;4.67;;;3.17;;
7501;SDS011;3792;47.740;7.606;2023-08-01T08:00:02;4.50;;;3.27;;
7501;SDS011;3792;47.740;7.606;2023-08-01T08:02:29;4.47;;;2.97;;
7501;SDS011;3792;47.740;7.606;2023-08-01T08:04:56;3.30;;;3.00;;
7501;SDS011;3792;47.740;7.606;2023-08-01T08:07:23;5.10;;;3.13;;
7501;SDS011;3792;47.740;7.606;2023-08-01T08:09:50;4.07;;;3.13;;
7501;SDS011;3792;47.740;7.606;2023-08-01T08:12:20;4.77;;;2.93;;
7501;SDS011;3792;47.740;7.606;2023-08-01T08:14:48;3.77;;;3.00;;
7501;SDS011;3792;47.740;7.606;2023-08-01T08:17:15;4.20;;;3.13;;
7501;SDS011;3792;47.740;7.606;2023-08-01T08:19:42;4.20;;;3.00;;
7501;SDS011;3792;47.740;7.606;2023-08-01T08:22:10;4.07;;;2.73;;
7501;SDS011;3792;47.740;7.606;2023-08-01T08:24:37;4.63;;;2.97;;
7501;SDS011;3792;47.740;7.606;2023-08-01T08:27:04;2.77;;;2.50;;
7501;SDS011;3792;47.740;7.606;2023-08-01T08:29:32;3.53;;;2.77;;
7501;SDS011;3792;47.740;7.606;2023-08-01T08:32:00;4.00;;;2.50;;
7501;SDS011;3792;47.740;7.606;2023-08-01T08:34:28;2.80;;;2.60;;
7501;SDS011;3792;47.740;7.606;2023-08-01T08:36:55;2.83;;;2.27;;
7501;SDS011;3792;47.740;7.606;2023-08-01T08:39:22;2.53;;;2.33;;
7501;SDS011;3792;47.740;7.606;2023-08-01T08:41:50;3.03;;;2.30;;
7501;SDS011;3792;47.740;7.606;2023-08-01T08:44:18;4.37;;;2.30;;
7501;SDS011;3792;47.740;7.606;2023-08-01T08:46:48;6.43;;;2.73;;
7501;SDS011;3792;47.740;7.606;2023-08-01T08:49:18;2.87;;;2.47;;
7501;SDS011;3792;47.740;7.606;2023-08-01T08:51:46;3.03;;;2.50;;
7501;SDS011;3792;47.740;7.606;2023-08-01T08:54:15;2.87;;;2.20;;
7501;SDS011;3792;47.740;7.606;2023-08-01T08:56:42;3.27;;;2.27;;
7501;SDS011;3792;47.740;7.606;2023-08-01T08:59:10;3.57;;;2.30;;
7501;SDS011;3792;47.740;7.606;2023-08-01T09:01:37;2.37;;;2.17;;
7501;SDS011;3792;47.740;7.606;2023-08-01T09:04:05;2.37;;;2.17;;
7501;SDS011;3792;47.740;7.606;2023-08-01T09:06:34;2.33;;;2.00;;
7501;SDS011;3792;47.740;7.606;2023-08-01T09:09:09;2.00;;;1.80;;
7501;SDS011;3792;47.740;7.606;2023-08-01T09:11:41;2.20;;;2.00;;
7501;SDS011;3792;47.740;7.606;2023-08-01T09:14:11;4.00;;;2.07;;
7501;SDS011;3792;47.740;7.606;2023-08-01T09:16:39;2.47;;;2.20;;
7501;SDS011;3792;47.740;7.606;2023-08-01T09:19:07;2.23;;;2.07;;
7501;SDS011;3792;47.740;7.606;2023-08-01T09:21:36;2.13;;;1.93;;
7501;SDS011;3792;47.740;7.606;2023-08-01T09:24:08;2.73;;;2.23;;
7501;SDS011;3792;47.740;7.606;2023-08-01T09:26:36;3.00;;;1.87;;
7501;SDS011;3792;47.740;7.606;2023-08-01T09:29:03;3.30;;;1.90;;
7501;SDS011;3792;47.740;7.606;2023-08-01T09:31:31;2.47;;;1.83;;
7501;SDS011;3792;47.740;7.606;2023-08-01T09:34:01;3.93;;;2.33;;
7501;SDS011;3792;47.740;7.606;2023-08-01T09:36:31;3.17;;;2.10;;
7501;SDS011;3792;47.740;7.606;2023-08-01T09:39:00;3.53;;;2.20;;
7501;SDS011;3792;47.740;7.606;2023-08-01T09:41:28;2.53;;;1.90;;
7501;SDS011;3792;47.740;7.606;2023-08-01T09:43:56;2.57;;;2.13;;
7501;SDS011;3792;47.740;7.606;2023-08-01T09:46:24;2.53;;;2.23;;
7501;SDS011;3792;47.740;7.606;2023-08-01T09:48:52;2.77;;;1.93;;
7501;SDS011;3792;47.740;7.606;2023-08-01T09:51:19;2.40;;;1.97;;
7501;SDS011;3792;47.740;7.606;2023-08-01T09:53:47;2.13;;;1.90;;
7501;SDS011;3792;47.740;7.606;2023-08-01T09:56:18;1.83;;;1.73;;
7501;SDS011;3792;47.740;7.606;2023-08-01T09:58:46;2.33;;;1.70;;
7501;SDS011;3792;47.740;7.606;2023-08-01T10:01:14;1.97;;;1.77;;
7501;SDS011;3792;47.740;7.606;2023-08-01T10:03:44;2.07;;;1.87;;
7501;SDS011;3792;47.740;7.606;2023-08-01T10:06:13;4.43;;;2.00;;
7501;SDS011;3792;47.740;7.606;2023-08-01T10:08:44;1.67;;;1.57;;
7501;SDS011;3792;47.740;7.606;2023-08-01T10:11:11;2.07;;;1.80;;
7501;SDS011;3792;47.740;7.606;2023-08-01T10:13:42;1.80;;;1.70;;
7501;SDS011;3792;47.740;7.606;2023-08-01T10:16:10;1.80;;;1.70;;
7501;SDS011;3792;47.740;7.606;2023-08-01T10:18:37;1.70;;;1.60;;
7501;SDS011;3792;47.740;7.606;2023-08-01T10:21:05;3.23;;;1.90;;
7501;SDS011;3792;47.740;7.606;2023-08-01T10:23:33;2.00;;;1.60;;
7501;SDS011;3792;47.740;7.606;2023-08-01T10:26:01;3.60;;;2.00;;
7501;SDS011;3792;47.740;7.606;2023-08-01T10:28:31;2.73;;;1.50;;
7501;SDS011;3792;47.740;7.606;2023-08-01T10:31:08;1.93;;;1.70;;
7501;SDS011;3792;47.740;7.606;2023-08-01T10:33:40;2.97;;;1.73;;
7501;SDS011;3792;47.740;7.606;2023-08-01T10:36:14;2.13;;;1.90;;
7501;SDS011;3792;47.740;7.606;2023-08-01T10:38:48;1.70;;;1.60;;
7501;SDS011;3792;47.740;7.606;2023-08-01T10:41:20;3.10;;;1.90;;
7501;SDS011;3792;47.740;7.606;2023-08-01T10:43:48;1.93;;;1.83;;
7501;SDS011;3792;47.740;7.606;2023-08-01T10:46:16;1.87;;;1.53;;
7501;SDS011;3792;47.740;7.606;2023-08-01T10:48:50;2.70;;;1.57;;
7501;SDS011;3792;47.740;7.606;2023-08-01T10:51:18;1.57;;;1.40;;
7501;SDS011;3792;47.740;7.606;2023-08-01T10:53:45;2.37;;;1.70;;
7501;SDS011;3792;47.740;7.606;2023-08-01T10:56:17;1.70;;;1.60;;
7501;SDS011;3792;47.740;7.606;2023-08-01T10:58:44;3.87;;;1.60;;
7501;SDS011;3792;47.740;7.606;2023-08-01T11:01:13;2.43;;;1.80;;
7501;SDS011;3792;47.740;7.606;2023-08-01T11:03:42;1.43;;;1.33;;
7501;SDS011;3792;47.740;7.606;2023-08-01T11:06:09;1.70;;;1.60;;
7501;SDS011;3792;47.740;7.606;2023-08-01T11:08:36;2.87;;;1.57;;
7501;SDS011;3792;47.740;7.606;2023-08-01T11:11:05;1.53;;;1.30;;
7501;SDS011;3792;47.740;7.606;2023-08-01T11:13:33;1.83;;;1.50;;
7501;SDS011;3792;47.740;7.606;2023-08-01T11:16:01;1.50;;;1.40;;
7501;SDS011;3792;47.740;7.606;2023-08-01T11:18:30;2.10;;;1.63;;
7501;SDS011;3792;47.740;7.606;2023-08-01T11:20:58;2.07;;;1.30;;
7501;SDS011;3792;47.740;7.606;2023-08-01T11:23:28;1.73;;;1.63;;
7501;SDS011;3792;47.740;7.606;2023-08-01T11:25:56;2.40;;;1.97;;
7501;SDS011;3792;47.740;7.606;2023-08-01T11:28:23;3.10;;;1.50;;
7501;SDS011;3792;47.740;7.606;2023-08-01T11:30:51;2.67;;;1.50;;
7501;SDS011;3792;47.740;7.606;2023-08-01T11:33:18;1.63;;;1.53;;
7501;SDS011;3792;47.740;7.606;2023-08-01T11:35:49;1.87;;;1.60;;
7501;SDS011;3792;47.740;7.606;2023-08-01T11:38:20;1.80;;;1.70;;
7501;SDS011;3792;47.740;7.606;2023-08-01T11:40:48;2.40;;;2.20;;
7501;SDS011;3792;47.740;7.606;2023-08-01T11:43:16;3.27;;;1.80;;
7501;SDS011;3792;47.740;7.606;2023-08-01T11:45:50;3.90;;;1.87;;
7501;SDS011;3792;47.740;7.606;2023-08-01T11:48:17;2.37;;;1.97;;
7501;SDS011;3792;47.740;7.606;2023-08-01T11:50:45;4.00;;;2.47;;
7501;SDS011;3792;47.740;7.606;2023-08-01T11:53:18;3.23;;;2.30;;
7501;SDS011;3792;47.740;7.606;2023-08-01T11:55:47;1.97;;;1.67;;
7501;SDS011;3792;47.740;7.606;2023-08-01T11:58:27;4.07;;;1.93;;
7501;SDS011;3792;47.740;7.606;2023-08-01T12:01:01;3.30;;;1.80;;
7501;SDS011;3792;47.740;7.606;2023-08-01T12:03:29;1.87;;;1.70;;
7501;SDS011;3792;47.740;7.606;2023-08-01T12:06:04;1.53;;;1.43;;
7501;SDS011;3792;47.740;7.606;2023-08-01T12:08:34;1.33;;;1.23;;
7501;SDS011;3792;47.740;7.606;2023-08-01T12:11:01;1.30;;;1.17;;
7501;SDS011;3792;47.740;7.606;2023-08-01T12:13:28;0.90;;;0.90;;
7501;SDS011;3792;47.740;7.606;2023-08-01T12:15:56;0.80;;;0.80;;
7501;SDS011;3792;47.740;7.606;2023-08-01T12:18:24;1.03;;;0.70;;
7501;SDS011;3792;47.740;7.606;2023-08-01T12:20:52;1.87;;;0.87;;
7501;SDS011;3792;47.740;7.606;2023-08-01T12:23:20;0.90;;;0.90;;
7501;SDS011;3792;47.740;7.606;2023-08-01T12:25:48;0.70;;;0.70;;
7501;SDS011;3792;47.740;7.606;2023-08-01T12:28:16;0.60;;;0.60;;
7501;SDS011;3792;47.740;7.606;2023-08-01T12:30:43;1.33;;;0.67;;
7501;SDS011;3792;47.740;7.606;2023-08-01T12:33:10;0.50;;;0.50;;
7501;SDS011;3792;47.740;7.606;2023-08-01T12:35:39;1.57;;;0.50;;
7501;SDS011;3792;47.740;7.606;2023-08-01T12:38:07;0.73;;;0.73;;
7501;SDS011;3792;47.740;7.606;2023-08-01T12:40:34;0.60;;;0.60;;
7501;SDS011;3792;47.740;7.606;2023-08-01T12:43:02;0.80;;;0.80;;
7501;SDS011;3792;47.740;7.606;2023-08-01T12:45:30;0.77;;;0.77;;
7501;SDS011;3792;47.740;7.606;2023-08-01T12:47:57;0.50;;;0.50;;
7501;SDS011;3792;47.740;7.606;2023-08-01T12:50:24;0.83;;;0.70;;
7501;SDS011;3792;47.740;7.606;2023-08-01T12:52:51;0.47;;;0.47;;
7501;SDS011;3792;47.740;7.606;2023-08-01T12:55:18;1.00;;;0.70;;
7501;SDS011;3792;47.740;7.606;2023-08-01T12:57:45;0.53;;;0.50;;
7501;SDS011;3792;47.740;7.606;2023-08-01T13:00:14;0.57;;;0.57;;
7501;SDS011;3792;47.740;7.606;2023-08-01T13:02:41;0.67;;;0.67;;
7501;SDS011;3792;47.740;7.606;2023-08-01T13:05:09;0.87;;;0.60;;
7501;SDS011;3792;47.740;7.606;2023-08-01T13:07:36;0.63;;;0.60;;
7501;SDS011;3792;47.740;7.606;2023-08-01T13:10:03;0.83;;;0.60;;
7501;SDS011;3792;47.740;7.606;2023-08-01T13:12:31;1.37;;;0.60;;
7501;SDS011;3792;47.740;7.606;2023-08-01T13:14:58;0.70;;;0.70;;
7501;SDS011;3792;47.740;7.606;2023-08-01T13:17:26;0.60;;;0.60;;
7501;SDS011;3792;47.740;7.606;2023-08-01T13:19:53;0.93;;;0.60;;
7501;SDS011;3792;47.740;7.606;2023-08-01T13:22:20;0.87;;;0.80;;
7501;SDS011;3792;47.740;7.606;2023-08-01T13:24:47;1.23;;;0.70;;
7501;SDS011;3792;47.740;7.606;2023-08-01T13:27:14;0.70;;;0.60;;
7501;SDS011;3792;47.740;7.606;2023-08-01T13:29:41;2.73;;;0.70;;
7501;SDS011;3792;47.740;7.606;2023-08-01T13:32:08;0.80;;;0.80;;
7501;SDS011;3792;47.740;7.606;2023-08-01T13:34:37;1.33;;;0.70;;
7501;SDS011;3792;47.740;7.606;2023-08-01T13:37:04;1.03;;;0.90;;
7501;SDS011;3792;47.740;7.606;2023-08-01T13:39:31;0.60;;;0.60;;
7501;SDS011;3792;47.740;7.606;2023-08-01T13:41:58;0.80;;;0.77;;
7501;SDS011;3792;47.740;7.606;2023-08-01T13:44:25;0.70;;;0.70;;
7501;SDS011;3792;47.740;7.606;2023-08-01T13:46:52;0.93;;;0.70;;
7501;SDS011;3792;47.740;7.606;2023-08-01T13:49:19;0.80;;;0.73;;
7501;SDS011;3792;47.740;7.606;2023-08-01T13:51:48;1.33;;;0.80;;
7501;SDS011;3792;47.740;7.606;2023-08-01T13:54:15;0.83;;;0.80;;
7501;SDS011;3792;47.740;7.606;2023-08-01T13:56:42;0.90;;;0.90;;
7501;SDS011;3792;47.740;7.606;2023-08-01T13:59:09;0.93;;;0.90;;
7501;SDS011;3792;47.740;7.606;2023-08-01T14:01:36;0.93;;;0.90;;
7501;SDS011;3792;47.740;7.606;2023-08-01T14:04:04;0.87;;;0.87;;
7501;SDS011;3792;47.740;7.606;2023-08-01T14:06:31;1.17;;;1.10;;
7501;SDS011;3792;47.740;7.606;2023-08-01T14:08:59;0.90;;;0.90;;
7501;SDS011;3792;47.740;7.606;2023-08-01T14:11:26;2.17;;;1.00;;
7501;SDS011;3792;47.740;7.606;2023-08-01T14:13:53;1.63;;;0.90;;
7501;SDS011;3792;47.740;7.606;2023-08-01T14:16:20;1.10;;;1.00;;
7501;SDS011;3792;47.740;7.606;2023-08-01T14:18:47;1.20;;;1.10;;
7501;SDS011;3792;47.740;7.606;2023-08-01T14:21:14;1.00;;;1.00;;
7501;SDS011;3792;47.740;7.606;2023-08-01T14:23:41;2.00;;;1.10;;
7501;SDS011;3792;47.740;7.606;2023-08-01T14:26:10;0.90;;;0.90;;
7501;SDS011;3792;47.740;7.606;2023-08-01T14:28:37;2.43;;;0.87;;
7501;SDS011;3792;47.740;7.606;2023-08-01T14:31:04;1.77;;;0.93;;
7501;SDS011;3792;47.740;7.606;2023-08-01T14:33:32;1.10;;;1.03;;
7501;SDS011;3792;47.740;7.606;2023-08-01T14:36:00;0.90;;;0.90;;
7501;SDS011;3792;47.740;7.606;2023-08-01T14:38:27;1.10;;;1.03;;
7501;SDS011;3792;47.740;7.606;2023-08-01T14:40:54;1.37;;;1.07;;
7501;SDS011;3792;47.740;7.606;2023-08-01T14:43:23;1.30;;;1.20;;
7501;SDS011;3792;47.740;7.606;2023-08-01T14:45:50;2.13;;;1.00;;
7501;SDS011;3792;47.740;7.606;2023-08-01T14:48:17;0.97;;;0.90;;
7501;SDS011;3792;47.740;7.606;2023-08-01T14:50:45;1.43;;;1.10;;
7501;SDS011;3792;47.740;7.606;2023-08-01T14:53:13;1.50;;;1.00;;
7501;SDS011;3792;47.740;7.606;2023-08-01T14:55:40;2.30;;;0.90;;
7501;SDS011;3792;47.740;7.606;2023-08-01T14:58:07;1.03;;;1.03;;
7501;SDS011;3792;47.740;7.606;2023-08-01T15:00:36;1.33;;;1.23;;
7501;SDS011;3792;47.740;7.606;2023-08-01T15:03:03;0.80;;;0.80;;
7501;SDS011;3792;47.740;7.606;2023-08-01T15:05:30;1.00;;;1.00;;
7501;SDS011;3792;47.740;7.606;2023-08-01T15:07:57;1.60;;;0.97;;
7501;SDS011;3792;47.740;7.606;2023-08-01T15:10:25;1.20;;;1.10;;
7501;SDS011;3792;47.740;7.606;2023-08-01T15:12:52;1.53;;;1.37;;
7501;SDS011;3792;47.740;7.606;2023-08-01T15:15:20;1.93;;;1.10;;
7501;SDS011;3792;47.740;7.606;2023-08-01T15:17:48;1.20;;;1.20;;